Time;durP1;ratioP1;P1;durP2;ratioP2;P2;SDS_P1;SDS_P2;PMS_P1;PMS_P2;Temp;Humidity;BMP_temperature;BMP_pressure;BME280_temperature;BME280_humidity;BME280_pressure;Samples;Min_cycle;Max_cycle;Signal;HPM_P1;HPM_P2
2022/04/05 00:00:34;;;;;;;11.27;8.27;;;;;;;;;;5026996;28;20022;-73
2022/04/05 00:03:00;;;;;;;11.13;7.60;;;;;;;;;;5027096;28;20018;-73
2022/04/05 00:05:25;;;;;;;15.63;9.00;;;;;;;;;;5027104;28;20109;-73
2022/04/05 00:07:51;;;;;;;10.53;7.87;;;;;;;;;;5010708;28;20064;-73
2022/04/05 00:10:17;;;;;;;12.67;8.67;;;;;;;;;;5027332;28;20057;-73
2022/04/05 00:12:42;;;;;;;10.67;7.87;;;;;;;;;;5026920;28;20421;-73
2022/04/05 00:15:09;;;;;;;12.03;7.50;;;;;;;;;;5026588;28;20509;-74
2022/04/05 00:17:36;;;;;;;11.83;8.70;;;;;;;;;;5026550;28;20022;-73
2022/04/05 00:20:02;;;;;;;9.77;7.23;;;;;;;;;;5026872;28;20030;-74
2022/04/05 00:22:28;;;;;;;11.33;7.27;;;;;;;;;;5028360;28;20026;-74
2022/04/05 00:24:53;;;;;;;10.17;6.83;;;;;;;;;;5015548;28;20359;-73
2022/04/05 00:27:19;;;;;;;12.23;7.53;;;;;;;;;;5016399;28;20026;-73
2022/04/05 00:29:45;;;;;;;13.90;8.30;;;;;;;;;;5032662;28;20473;-72
2022/04/05 00:32:12;;;;;;;13.37;7.47;;;;;;;;;;5027556;28;20063;-72
2022/04/05 00:34:37;;;;;;;10.63;7.67;;;;;;;;;;5026656;28;20470;-72
2022/04/05 00:37:03;;;;;;;9.90;6.77;;;;;;;;;;5026728;28;20033;-73
2022/04/05 00:39:29;;;;;;;11.17;7.93;;;;;;;;;;5011414;28;20033;-74
2022/04/05 00:41:55;;;;;;;12.57;7.40;;;;;;;;;;5026464;28;20041;-74
2022/04/05 00:44:20;;;;;;;12.30;8.23;;;;;;;;;;5026582;28;20040;-74
2022/04/05 00:46:47;;;;;;;13.03;8.93;;;;;;;;;;5009565;28;20030;-73
2022/04/05 00:49:19;;;;;;;8.77;6.97;;;;;;;;;;5026008;28;20026;-73
2022/04/05 00:51:44;;;;;;;9.65;6.78;;;;;;;;;;5011024;28;20097;-73
2022/04/05 00:54:13;;;;;;;10.90;7.57;;;;;;;;;;5026376;28;20112;-73
2022/04/05 00:56:40;;;;;;;13.77;8.53;;;;;;;;;;5011086;28;20053;-73
2022/04/05 00:59:09;;;;;;;13.93;9.63;;;;;;;;;;5009476;28;20076;-73
2022/04/05 01:01:37;;;;;;;10.10;7.53;;;;;;;;;;5026081;28;20021;-73
2022/04/05 01:04:03;;;;;;;9.70;6.67;;;;;;;;;;5025786;28;20092;-73
2022/04/05 01:06:38;;;;;;;9.27;6.73;;;;;;;;;;5025838;28;20030;-73
2022/04/05 01:09:03;;;;;;;8.13;6.47;;;;;;;;;;5025793;28;20030;-73
2022/04/05 01:11:32;;;;;;;13.33;7.97;;;;;;;;;;5025683;28;20032;-73
2022/04/05 01:13:57;;;;;;;9.37;6.67;;;;;;;;;;5025366;28;20032;-73
2022/04/05 01:16:23;;;;;;;12.30;7.47;;;;;;;;;;5025686;28;20025;-73
2022/04/05 01:18:49;;;;;;;12.67;7.00;;;;;;;;;;5025176;28;20080;-72
2022/04/05 01:21:15;;;;;;;11.37;6.30;;;;;;;;;;5025351;28;20056;-74
2022/04/05 01:24:10;;;;;;;9.60;7.33;;;;;;;;;;5010222;28;20041;-73
2022/04/05 01:26:50;;;;;;;10.87;8.03;;;;;;;;;;5008096;28;20041;-73
2022/04/05 01:29:19;;;;;;;8.80;6.63;;;;;;;;;;5025342;28;20117;-72
2022/04/05 01:31:48;;;;;;;11.33;7.57;;;;;;;;;;5008795;28;20069;-72
2022/04/05 01:34:15;;;;;;;10.13;7.27;;;;;;;;;;5025416;28;20026;-73
2022/04/05 01:36:43;;;;;;;9.00;7.37;;;;;;;;;;4992821;28;20080;-72
2022/04/05 01:39:10;;;;;;;9.43;7.43;;;;;;;;;;5008674;28;20548;-73
2022/04/05 01:41:36;;;;;;;8.73;6.83;;;;;;;;;;5025038;28;20062;-73
2022/04/05 01:44:03;;;;;;;9.87;7.17;;;;;;;;;;5025282;28;20026;-73
2022/04/05 01:46:28;;;;;;;11.50;8.27;;;;;;;;;;5008807;28;20107;-73
2022/04/05 01:48:54;;;;;;;11.97;7.23;;;;;;;;;;5009811;28;20474;-73
2022/04/05 01:51:19;;;;;;;9.47;6.80;;;;;;;;;;5024884;28;20581;-73
2022/04/05 01:53:45;;;;;;;10.27;7.90;;;;;;;;;;5024904;28;20113;-73
2022/04/05 01:56:11;;;;;;;10.27;7.27;;;;;;;;;;5025217;28;20022;-73
2022/04/05 01:58:36;;;;;;;11.07;8.40;;;;;;;;;;5025050;28;20061;-74
2022/04/05 02:01:03;;;;;;;11.10;7.83;;;;;;;;;;5009567;28;20032;-73
2022/04/05 02:03:29;;;;;;;11.60;8.07;;;;;;;;;;5009881;28;20030;-73
2022/04/05 02:05:55;;;;;;;10.23;7.33;;;;;;;;;;4991914;28;20029;-73
2022/04/05 02:08:20;;;;;;;11.63;8.03;;;;;;;;;;5025102;28;20022;-73
2022/04/05 02:10:46;;;;;;;10.33;7.50;;;;;;;;;;5024540;28;20083;-73
2022/04/05 02:13:11;;;;;;;10.20;7.60;;;;;;;;;;5024849;28;20478;-73
2022/04/05 02:15:37;;;;;;;12.20;8.23;;;;;;;;;;5024751;28;20398;-72
2022/04/05 02:18:03;;;;;;;10.07;7.73;;;;;;;;;;5024654;28;20049;-73
2022/04/05 02:20:29;;;;;;;11.63;8.27;;;;;;;;;;5008335;28;20037;-73
2022/04/05 02:22:54;;;;;;;12.57;8.13;;;;;;;;;;5024741;28;20072;-75
2022/04/05 02:25:20;;;;;;;12.10;8.00;;;;;;;;;;5008149;28;20040;-73
2022/04/05 02:27:47;;;;;;;9.67;7.70;;;;;;;;;;5024497;28;20076;-73
2022/04/05 02:30:13;;;;;;;11.60;8.33;;;;;;;;;;5024761;28;20049;-73
2022/04/05 02:32:39;;;;;;;12.53;9.00;;;;;;;;;;5008311;28;20053;-74
2022/04/05 02:35:05;;;;;;;9.73;7.97;;;;;;;;;;5024602;28;20033;-72
2022/04/05 02:37:31;;;;;;;11.77;8.33;;;;;;;;;;5026188;28;20022;-74
2022/04/05 02:39:56;;;;;;;10.50;7.70;;;;;;;;;;5028435;28;20026;-72
2022/04/05 02:42:22;;;;;;;8.83;6.33;;;;;;;;;;5013269;28;20026;-74
2022/04/05 02:44:47;;;;;;;11.33;7.60;;;;;;;;;;5013365;28;20061;-73
2022/04/05 02:47:15;;;;;;;14.90;8.67;;;;;;;;;;5028669;28;20030;-74
2022/04/05 02:49:40;;;;;;;11.03;7.43;;;;;;;;;;5028518;28;20034;-74
2022/04/05 02:52:06;;;;;;;11.30;7.37;;;;;;;;;;5028300;28;20083;-72
2022/04/05 02:54:33;;;;;;;11.37;7.47;;;;;;;;;;5011915;28;20173;-73
2022/04/05 02:56:59;;;;;;;9.73;7.67;;;;;;;;;;5027934;28;20525;-74
2022/04/05 02:59:25;;;;;;;11.13;7.83;;;;;;;;;;5028454;28;20030;-73
2022/04/05 03:01:50;;;;;;;8.50;6.43;;;;;;;;;;5011627;28;20197;-73
2022/04/05 03:04:16;;;;;;;13.23;8.07;;;;;;;;;;5015912;28;20468;-73
2022/04/05 03:06:41;;;;;;;10.53;7.03;;;;;;;;;;5031555;28;20366;-74
2022/04/05 03:09:07;;;;;;;9.10;7.20;;;;;;;;;;5030039;28;20533;-73
2022/04/05 03:11:32;;;;;;;10.23;7.53;;;;;;;;;;5028238;28;20486;-74
2022/04/05 03:13:58;;;;;;;10.07;6.63;;;;;;;;;;5028008;28;20029;-74
2022/04/05 03:16:24;;;;;;;12.30;7.37;;;;;;;;;;5027988;28;20026;-73
2022/04/05 03:18:50;;;;;;;13.13;7.40;;;;;;;;;;5011039;28;20450;-73
2022/04/05 03:21:16;;;;;;;12.37;7.20;;;;;;;;;;5012951;28;20064;-74
2022/04/05 03:23:43;;;;;;;7.23;6.50;;;;;;;;;;5011435;28;20050;-74
2022/04/05 03:26:08;;;;;;;10.53;6.90;;;;;;;;;;5027360;28;20034;-74
2022/04/05 03:28:34;;;;;;;7.30;6.03;;;;;;;;;;5012845;28;20025;-74
2022/04/05 03:30:59;;;;;;;9.07;6.77;;;;;;;;;;5027599;28;20068;-73
2022/04/05 03:33:25;;;;;;;9.87;7.50;;;;;;;;;;5012894;28;20022;-73
2022/04/05 03:35:54;;;;;;;9.03;6.70;;;;;;;;;;5012206;28;20029;-73
2022/04/05 03:38:19;;;;;;;8.40;7.00;;;;;;;;;;5027438;28;20474;-74
2022/04/05 03:40:46;;;;;;;8.23;6.63;;;;;;;;;;5027428;28;20030;-73
2022/04/05 03:43:12;;;;;;;8.10;6.27;;;;;;;;;;5012395;28;20030;-74
2022/04/05 03:45:39;;;;;;;10.13;6.93;;;;;;;;;;5012483;28;20441;-73
2022/04/05 03:48:05;;;;;;;9.90;7.13;;;;;;;;;;5027336;28;20133;-73
2022/04/05 03:50:31;;;;;;;10.17;7.17;;;;;;;;;;5027007;28;20033;-74
2022/04/05 03:52:59;;;;;;;11.10;7.93;;;;;;;;;;5027046;28;20036;-74
2022/04/05 03:55:25;;;;;;;11.50;7.90;;;;;;;;;;5027089;28;20076;-74
2022/04/05 03:57:51;;;;;;;9.13;7.13;;;;;;;;;;5027440;28;20490;-73
2022/04/05 04:00:17;;;;;;;8.10;7.03;;;;;;;;;;5027303;28;20034;-74
2022/04/05 04:02:43;;;;;;;9.70;7.07;;;;;;;;;;5012110;28;20034;-74
2022/04/05 04:05:08;;;;;;;9.93;7.07;;;;;;;;;;5027339;28;20030;-74
2022/04/05 04:07:39;;;;;;;11.13;7.27;;;;;;;;;;5010711;28;20033;-74
2022/04/05 04:10:05;;;;;;;12.27;7.87;;;;;;;;;;5026873;28;20037;-74
2022/04/05 04:12:32;;;;;;;10.87;7.67;;;;;;;;;;5026967;28;20075;-74
2022/04/05 04:14:58;;;;;;;10.57;6.67;;;;;;;;;;5010384;28;20057;-74
2022/04/05 04:17:25;;;;;;;11.90;7.43;;;;;;;;;;5026599;28;20486;-73
2022/04/05 04:19:51;;;;;;;10.43;7.60;;;;;;;;;;5011431;28;20033;-73
2022/04/05 04:22:17;;;;;;;10.87;7.30;;;;;;;;;;5026727;28;20030;-73
2022/04/05 04:24:43;;;;;;;11.20;7.50;;;;;;;;;;5027198;28;20084;-74
2022/04/05 04:27:11;;;;;;;10.33;7.73;;;;;;;;;;5026622;28;20040;-74
2022/04/05 04:29:37;;;;;;;9.33;7.53;;;;;;;;;;5026605;28;20041;-75
2022/04/05 04:32:04;;;;;;;12.33;8.03;;;;;;;;;;5011055;28;20038;-74
2022/04/05 04:34:29;;;;;;;14.60;8.07;;;;;;;;;;5011540;28;20033;-73
2022/04/05 04:36:56;;;;;;;9.13;6.87;;;;;;;;;;5025879;28;20081;-74
2022/04/05 04:39:21;;;;;;;11.40;6.93;;;;;;;;;;5026298;28;20040;-74
2022/04/05 04:41:47;;;;;;;12.03;7.43;;;;;;;;;;5026181;28;20041;-74
2022/04/05 04:44:12;;;;;;;10.30;6.60;;;;;;;;;;5009803;28;20030;-73
2022/04/05 04:46:38;;;;;;;10.50;6.97;;;;;;;;;;5026044;28;20470;-73
2022/04/05 04:49:04;;;;;;;9.63;6.53;;;;;;;;;;5026045;28;20022;-73
2022/04/05 04:51:29;;;;;;;11.43;7.30;;;;;;;;;;5011217;28;20096;-74
2022/04/05 04:53:55;;;;;;;11.43;7.33;;;;;;;;;;5009663;28;20029;-74
2022/04/05 04:56:20;;;;;;;11.27;7.60;;;;;;;;;;5025930;28;20121;-74
2022/04/05 04:58:46;;;;;;;9.93;7.97;;;;;;;;;;5026311;28;20136;-73
2022/04/05 05:01:12;;;;;;;12.03;7.50;;;;;;;;;;5025035;28;20065;-73
2022/04/05 05:03:38;;;;;;;15.37;7.50;;;;;;;;;;5026175;28;20048;-74
2022/04/05 05:06:04;;;;;;;9.77;7.27;;;;;;;;;;5009446;28;20038;-74
2022/04/05 05:08:31;;;;;;;14.47;8.53;;;;;;;;;;5009637;28;20040;-75
2022/04/05 05:10:57;;;;;;;11.47;7.37;;;;;;;;;;5026049;28;20103;-75
2022/04/05 05:13:22;;;;;;;12.63;8.07;;;;;;;;;;5026438;28;20454;-74
2022/04/05 05:15:48;;;;;;;10.03;7.50;;;;;;;;;;5010445;28;20106;-75
2022/04/05 05:18:16;;;;;;;9.77;6.83;;;;;;;;;;5009990;28;20061;-75
2022/04/05 05:20:42;;;;;;;10.00;6.67;;;;;;;;;;5026353;28;20033;-74
2022/04/05 05:23:07;;;;;;;12.10;7.30;;;;;;;;;;5028702;28;20045;-74
2022/04/05 05:25:33;;;;;;;11.87;7.73;;;;;;;;;;5031609;28;20038;-74
2022/04/05 05:27:59;;;;;;;10.73;7.13;;;;;;;;;;5014612;28;20108;-75
2022/04/05 05:30:25;;;;;;;10.83;7.77;;;;;;;;;;5015049;28;20029;-75
2022/04/05 05:32:51;;;;;;;9.40;6.87;;;;;;;;;;5014138;28;20125;-74
2022/04/05 05:35:18;;;;;;;9.57;6.37;;;;;;;;;;5033865;28;20065;-73
2022/04/05 05:37:45;;;;;;;8.37;7.27;;;;;;;;;;5014461;28;20026;-73
2022/04/05 05:40:12;;;;;;;10.63;7.77;;;;;;;;;;5025991;28;20125;-74
2022/04/05 05:42:52;;;;;;;8.73;6.70;;;;;;;;;;5008912;28;20462;-74
2022/04/05 05:45:19;;;;;;;8.60;6.50;;;;;;;;;;5025569;28;20025;-75
2022/04/05 05:47:45;;;;;;;8.13;5.80;;;;;;;;;;5024871;28;20021;-74
2022/04/05 05:50:12;;;;;;;7.93;6.80;;;;;;;;;;5023689;28;20385;-74
2022/04/05 05:52:41;;;;;;;9.27;6.47;;;;;;;;;;5018082;28;20443;-73
2022/04/05 05:55:08;;;;;;;9.80;6.20;;;;;;;;;;4999959;28;20065;-74
2022/04/05 05:57:34;;;;;;;9.87;6.20;;;;;;;;;;4991866;28;20096;-74
2022/04/05 06:00:06;;;;;;;9.97;6.80;;;;;;;;;;5009014;28;20307;-73
2022/04/05 06:02:32;;;;;;;7.10;5.57;;;;;;;;;;4999283;28;20038;-74
2022/04/05 06:04:58;;;;;;;6.53;5.10;;;;;;;;;;5017111;28;20100;-73
2022/04/05 06:07:23;;;;;;;7.00;5.57;;;;;;;;;;5015418;28;20117;-74
2022/04/05 06:09:49;;;;;;;7.47;5.63;;;;;;;;;;5018198;28;20139;-73
2022/04/05 06:12:15;;;;;;;8.87;5.63;;;;;;;;;;4998130;28;20386;-74
2022/04/05 06:14:40;;;;;;;9.33;5.87;;;;;;;;;;4980852;28;20029;-72
2022/04/05 06:17:06;;;;;;;9.40;6.20;;;;;;;;;;5022259;28;20029;-72
2022/04/05 06:19:31;;;;;;;6.87;5.70;;;;;;;;;;5003521;28;20053;-74
2022/04/05 06:21:57;;;;;;;6.37;4.73;;;;;;;;;;4994735;28;20180;-74
2022/04/05 06:24:23;;;;;;;6.23;5.00;;;;;;;;;;5012064;28;20338;-71
2022/04/05 06:26:48;;;;;;;6.73;5.17;;;;;;;;;;5005756;28;20198;-73
2022/04/05 06:29:15;;;;;;;6.40;5.10;;;;;;;;;;5002440;28;20038;-72
2022/04/05 06:31:41;;;;;;;5.60;4.47;;;;;;;;;;4996514;28;20033;-74
2022/04/05 06:34:06;;;;;;;8.13;5.20;;;;;;;;;;5005056;28;20022;-74
2022/04/05 06:36:32;;;;;;;7.10;5.07;;;;;;;;;;5007702;28;20072;-72
2022/04/05 06:38:57;;;;;;;4.80;4.13;;;;;;;;;;5004112;28;20027;-73
2022/04/05 06:41:23;;;;;;;5.67;3.90;;;;;;;;;;5005641;28;20022;-71
2022/04/05 06:43:49;;;;;;;7.17;4.70;;;;;;;;;;5003352;28;20482;-75
2022/04/05 06:46:16;;;;;;;6.13;4.47;;;;;;;;;;4995287;28;20060;-74
2022/04/05 06:48:41;;;;;;;4.63;4.10;;;;;;;;;;5000634;28;20137;-72
2022/04/05 06:51:07;;;;;;;7.37;4.77;;;;;;;;;;5000594;28;20409;-73
2022/04/05 06:53:33;;;;;;;5.43;4.67;;;;;;;;;;5012313;28;20032;-74
2022/04/05 06:56:00;;;;;;;5.10;4.17;;;;;;;;;;5019588;28;20040;-72
2022/04/05 06:58:25;;;;;;;10.20;4.10;;;;;;;;;;5012748;28;20026;-74
2022/04/05 07:00:51;;;;;;;6.33;4.33;;;;;;;;;;5004358;28;20021;-73
2022/04/05 07:03:17;;;;;;;5.57;4.30;;;;;;;;;;5015032;28;20609;-70
2022/04/05 07:05:42;;;;;;;6.27;4.00;;;;;;;;;;5005946;28;20026;-74
2022/04/05 07:08:10;;;;;;;6.23;4.00;;;;;;;;;;5006837;28;20037;-74
2022/04/05 07:10:37;;;;;;;5.60;4.07;;;;;;;;;;5021652;28;20026;-74
2022/04/05 07:13:03;;;;;;;4.93;3.80;;;;;;;;;;5021373;28;20029;-74
2022/04/05 07:15:29;;;;;;;5.53;4.27;;;;;;;;;;4983634;28;20034;-74
2022/04/05 07:17:54;;;;;;;6.20;4.23;;;;;;;;;;5001725;28;20054;-71
2022/04/05 07:20:23;;;;;;;4.70;4.20;;;;;;;;;;4992525;28;20612;-70
2022/04/05 07:22:50;;;;;;;7.30;3.60;;;;;;;;;;5002416;28;20045;-70
2022/04/05 07:25:24;;;;;;;5.53;4.27;;;;;;;;;;4993426;28;20128;-74
2022/04/05 07:27:51;;;;;;;4.63;4.13;;;;;;;;;;4999751;28;20519;-71
2022/04/05 07:30:18;;;;;;;4.10;3.60;;;;;;;;;;4994537;28;20141;-73
2022/04/05 07:32:47;;;;;;;6.50;4.10;;;;;;;;;;4993135;28;20029;-72
2022/04/05 07:35:14;;;;;;;5.60;4.10;;;;;;;;;;4999015;28;20046;-72
2022/04/05 07:37:40;;;;;;;5.17;4.13;;;;;;;;;;5000698;28;20034;-72
2022/04/05 07:40:10;;;;;;;6.83;4.17;;;;;;;;;;4999788;28;20025;-72
2022/04/05 07:42:37;;;;;;;4.63;3.67;;;;;;;;;;5002055;28;20096;-75
2022/04/05 07:45:04;;;;;;;6.33;4.00;;;;;;;;;;4983161;28;20077;-72
2022/04/05 07:47:31;;;;;;;7.33;4.20;;;;;;;;;;4992922;28;20037;-72
2022/04/05 07:49:57;;;;;;;6.80;3.73;;;;;;;;;;4996130;28;20359;-73
2022/04/05 07:52:24;;;;;;;4.60;3.30;;;;;;;;;;5014766;28;20107;-75
2022/04/05 07:54:49;;;;;;;6.67;3.70;;;;;;;;;;5009566;28;20038;-75
2022/04/05 07:57:15;;;;;;;6.33;3.80;;;;;;;;;;5006206;28;20040;-73
2022/04/05 07:59:41;;;;;;;5.77;3.60;;;;;;;;;;4994014;28;20438;-73
2022/04/05 08:02:07;;;;;;;5.23;3.90;;;;;;;;;;4996965;28;20038;-72
2022/04/05 08:04:32;;;;;;;4.20;3.43;;;;;;;;;;4999073;28;20038;-73
2022/04/05 08:06:58;;;;;;;5.10;4.20;;;;;;;;;;4996501;28;20115;-74
2022/04/05 08:09:24;;;;;;;4.93;4.17;;;;;;;;;;4992673;28;20501;-73
2022/04/05 08:11:49;;;;;;;5.50;3.77;;;;;;;;;;5004981;28;20060;-72
2022/04/05 08:14:15;;;;;;;5.13;3.00;;;;;;;;;;4993315;28;20030;-72
2022/04/05 08:16:42;;;;;;;4.67;3.63;;;;;;;;;;4993496;28;20120;-73
2022/04/05 08:19:09;;;;;;;7.17;3.90;;;;;;;;;;5008284;28;20060;-71
2022/04/05 08:21:35;;;;;;;5.17;3.70;;;;;;;;;;5006904;28;20105;-70
2022/04/05 08:24:01;;;;;;;7.20;3.50;;;;;;;;;;4994422;28;20030;-72
2022/04/05 08:26:28;;;;;;;6.23;3.37;;;;;;;;;;4987322;28;20382;-71
2022/04/05 08:28:56;;;;;;;5.10;2.70;;;;;;;;;;5008698;28;20416;-71
2022/04/05 08:31:23;;;;;;;4.23;3.13;;;;;;;;;;4996299;28;20132;-72
2022/04/05 08:33:50;;;;;;;8.70;3.23;;;;;;;;;;5005568;28;21401;-73
2022/04/05 08:36:16;;;;;;;4.67;3.23;;;;;;;;;;5004965;28;20335;-71
2022/04/05 08:38:43;;;;;;;3.27;2.93;;;;;;;;;;4994680;28;20163;-73
2022/04/05 08:41:10;;;;;;;4.03;3.13;;;;;;;;;;5001922;28;20154;-74
2022/04/05 08:43:37;;;;;;;5.07;2.80;;;;;;;;;;4991653;28;20048;-74
2022/04/05 08:46:05;;;;;;;4.53;3.47;;;;;;;;;;5003594;28;20124;-73
2022/04/05 08:48:33;;;;;;;4.03;2.90;;;;;;;;;;5007002;28;20061;-73
2022/04/05 08:50:58;;;;;;;2.87;2.63;;;;;;;;;;4992325;28;20379;-74
2022/04/05 08:53:24;;;;;;;4.50;3.37;;;;;;;;;;4996982;28;20021;-73
2022/04/05 08:55:53;;;;;;;4.13;3.40;;;;;;;;;;4997119;28;20108;-73
2022/04/05 08:58:19;;;;;;;3.53;3.00;;;;;;;;;;5005803;28;20430;-74
2022/04/05 09:00:45;;;;;;;2.93;2.60;;;;;;;;;;4996348;28;20121;-74
2022/04/05 09:03:12;;;;;;;3.20;2.87;;;;;;;;;;4997585;28;20042;-73
2022/04/05 09:05:40;;;;;;;2.57;2.37;;;;;;;;;;5006547;28;20040;-73
2022/04/05 09:08:23;;;;;;;2.53;2.07;;;;;;;;;;4989574;28;20053;-73
2022/04/05 09:11:11;;;;;;;3.43;2.63;;;;;;;;;;5009050;28;20036;-73
2022/04/05 09:13:37;;;;;;;7.93;2.80;;;;;;;;;;5008106;28;20034;-74
2022/04/05 09:16:08;;;;;;;3.97;2.70;;;;;;;;;;4995168;28;20366;-73
2022/04/05 09:18:39;;;;;;;3.13;2.50;;;;;;;;;;4994638;28;20053;-74
2022/04/05 09:21:08;;;;;;;2.70;2.40;;;;;;;;;;4988942;28;20033;-74
2022/04/05 09:23:38;;;;;;;5.57;2.57;;;;;;;;;;4998498;28;20401;-74
2022/04/05 09:26:07;;;;;;;2.63;2.17;;;;;;;;;;4992657;28;20426;-73
2022/04/05 09:28:56;;;;;;;2.13;1.93;;;;;;;;;;4990949;28;20030;-74
2022/04/05 09:31:23;;;;;;;2.80;2.03;;;;;;;;;;4977280;28;20064;-72
2022/04/05 09:34:12;;;;;;;2.40;2.20;;;;;;;;;;5008890;28;20044;-73
2022/04/05 09:36:40;;;;;;;3.23;2.07;;;;;;;;;;4995846;28;20034;-72
2022/04/05 09:39:26;;;;;;;2.13;1.93;;;;;;;;;;5006184;28;20058;-73
2022/04/05 09:42:07;;;;;;;4.20;1.80;;;;;;;;;;4987261;28;20107;-73
2022/04/05 09:44:40;;;;;;;2.33;2.10;;;;;;;;;;4996053;28;20164;-74
2022/04/05 09:47:17;;;;;;;3.08;2.08;;;;;;;;;;5008555;28;20474;-73
2022/04/05 09:49:46;;;;;;;2.40;1.90;;;;;;;;;;5009728;28;20069;-72
2022/04/05 09:52:29;;;;;;;1.90;1.67;;;;;;;;;;4993364;28;20947;-73
2022/04/05 09:54:56;;;;;;;5.60;1.60;;;;;;;;;;5001715;28;20033;-71
2022/04/05 09:57:33;;;;;;;1.97;1.60;;;;;;;;;;4972013;28;20606;-73
2022/04/05 10:00:16;;;;;;;4.00;1.73;;;;;;;;;;4998737;28;20781;-72
2022/04/05 10:03:06;;;;;;;2.10;1.87;;;;;;;;;;4985136;28;20101;-72
2022/04/05 10:05:35;;;;;;;1.80;1.50;;;;;;;;;;4995506;28;20046;-74
2022/04/05 10:08:05;;;;;;;2.97;2.07;;;;;;;;;;4978540;28;20045;-73
2022/04/05 10:10:35;;;;;;;1.75;1.65;;;;;;;;;;4994343;28;20034;-72
2022/04/05 10:13:00;;;;;;;2.10;1.80;;;;;;;;;;5004981;28;20049;-73
2022/04/05 10:15:28;;;;;;;1.70;1.30;;;;;;;;;;5011108;28;20034;-73
2022/04/05 10:17:54;;;;;;;2.13;1.90;;;;;;;;;;5013174;28;20038;-72
2022/04/05 10:20:22;;;;;;;1.70;1.60;;;;;;;;;;5018567;28;20061;-72
2022/04/05 10:22:53;;;;;;;2.20;1.50;;;;;;;;;;5019071;28;20111;-71
2022/04/05 10:25:21;;;;;;;1.90;1.77;;;;;;;;;;4999782;28;20505;-73
2022/04/05 10:27:47;;;;;;;2.07;1.60;;;;;;;;;;5004615;28;20042;-72
2022/04/05 10:30:24;;;;;;;3.40;2.47;;;;;;;;;;4995395;28;20347;-72
2022/04/05 10:33:11;;;;;;;3.23;2.70;;;;;;;;;;5014726;28;20026;-73
2022/04/05 10:36:00;;;;;;;5.53;2.03;;;;;;;;;;5009204;28;20682;-73
2022/04/05 10:38:30;;;;;;;1.77;1.50;;;;;;;;;;4989401;28;20057;-72
2022/04/05 10:41:20;;;;;;;2.13;1.92;;;;;;;;;;4993291;28;20088;-73
2022/04/05 10:44:22;;;;;;;3.23;2.20;;;;;;;;;;4998516;28;20030;-72
2022/04/05 10:47:00;;;;;;;2.78;1.90;;;;;;;;;;4995623;28;20501;-72
2022/04/05 10:49:36;;;;;;;2.13;1.53;;;;;;;;;;5004567;28;20076;-73
2022/04/05 10:52:31;;;;;;;2.87;1.90;;;;;;;;;;4987794;28;20037;-71
2022/04/05 10:55:11;;;;;;;1.93;1.80;;;;;;;;;;5002641;28;20024;-72
2022/04/05 10:57:38;;;;;;;6.23;2.00;;;;;;;;;;4990236;28;20057;-72
2022/04/05 11:00:25;;;;;;;1.90;1.57;;;;;;;;;;4995545;28;20034;-74
2022/04/05 11:03:00;;;;;;;2.50;1.90;;;;;;;;;;5023353;28;20057;-72
2022/04/05 11:05:35;;;;;;;3.43;1.80;;;;;;;;;;5011273;28;20063;-73
2022/04/05 11:08:22;;;;;;;2.13;1.70;;;;;;;;;;5008016;28;20041;-74
2022/04/05 11:10:51;;;;;;;2.63;2.43;;;;;;;;;;5003805;28;20034;-73
2022/04/05 11:13:16;;;;;;;3.30;1.80;;;;;;;;;;4995659;28;20053;-73
2022/04/05 11:15:56;;;;;;;6.20;2.72;;;;;;;;;;4996590;28;20126;-72
2022/04/05 11:18:24;;;;;;;3.67;1.80;;;;;;;;;;5001465;28;20062;-74
2022/04/05 11:20:52;;;;;;;2.00;1.80;;;;;;;;;;5007981;28;20026;-72
2022/04/05 11:23:19;;;;;;;1.65;1.55;;;;;;;;;;5007560;28;20875;-73
2022/04/05 11:25:47;;;;;;;3.13;1.83;;;;;;;;;;5006873;28;20034;-73
2022/04/05 11:28:20;;;;;;;2.40;1.63;;;;;;;;;;5009260;28;20045;-74
2022/04/05 11:30:52;;;;;;;2.25;1.85;;;;;;;;;;4997995;28;20062;-71
2022/04/05 11:33:30;;;;;;;;;;;;;;;;;;5014387;28;20191;-72
2022/04/05 11:35:59;;;;;;;1.58;1.48;;;;;;;;;;4995038;28;20471;-72
2022/04/05 11:38:39;;;;;;;2.22;2.03;;;;;;;;;;5004515;28;20088;-74
2022/04/05 11:41:08;;;;;;;1.88;1.77;;;;;;;;;;4998871;28;20040;-73
2022/04/05 11:43:44;;;;;;;7.03;2.13;;;;;;;;;;5011209;28;20075;-74
2022/04/05 11:46:21;;;;;;;1.90;1.80;;;;;;;;;;5012692;28;20042;-73
2022/04/05 11:48:56;;;;;;;6.32;3.45;;;;;;;;;;4993982;28;20517;-73
2022/04/05 11:51:34;;;;;;;3.47;1.67;;;;;;;;;;5011706;28;20030;-73
2022/04/05 11:54:17;;;;;;;3.63;1.80;;;;;;;;;;5003458;28;20108;-73
2022/04/05 11:56:44;;;;;;;2.28;1.83;;;;;;;;;;5005927;28;20068;-74
2022/04/05 11:59:17;;;;;;;3.33;2.15;;;;;;;;;;5006258;28;20041;-73
2022/04/05 12:01:49;;;;;;;1.52;1.42;;;;;;;;;;5008148;28;20034;-74
2022/04/05 12:04:18;;;;;;;4.15;1.75;;;;;;;;;;5019871;28;20037;-75
2022/04/05 12:06:46;;;;;;;2.08;1.88;;;;;;;;;;5008391;28;20029;-74
2022/04/05 12:09:17;;;;;;;2.00;1.90;;;;;;;;;;4989891;28;20038;-75
2022/04/05 12:11:52;;;;;;;5.97;1.90;;;;;;;;;;5006328;28;20346;-74
2022/04/05 12:14:21;;;;;;;1.80;1.70;;;;;;;;;;5001078;28;20036;-74
2022/04/05 12:17:18;;;;;;;2.17;1.85;;;;;;;;;;5007340;28;20030;-74
2022/04/05 12:19:45;;;;;;;2.33;2.13;;;;;;;;;;5002018;28;20034;-76
2022/04/05 12:22:14;;;;;;;2.20;1.70;;;;;;;;;;5008175;28;20486;-76
2022/04/05 12:24:53;;;;;;;2.90;1.90;;;;;;;;;;5022312;28;20025;-77
2022/04/05 12:27:23;;;;;;;7.72;2.08;;;;;;;;;;5016977;28;20211;-75
2022/04/05 12:29:49;;;;;;;2.83;1.90;;;;;;;;;;5011725;28;20382;-74
2022/04/05 12:32:16;;;;;;;1.70;1.60;;;;;;;;;;5019482;28;20419;-76
2022/04/05 12:34:42;;;;;;;3.03;1.88;;;;;;;;;;5009456;28;20093;-74
2022/04/05 12:37:17;;;;;;;1.98;1.88;;;;;;;;;;5004385;28;20486;-74
2022/04/05 12:39:51;;;;;;;4.25;2.50;;;;;;;;;;5021027;28;20030;-74
2022/04/05 12:42:17;;;;;;;3.03;1.98;;;;;;;;;;5024493;28;20180;-74
2022/04/05 12:44:48;;;;;;;2.22;1.85;;;;;;;;;;5020051;28;20512;-74
2022/04/05 12:47:25;;;;;;;3.83;2.63;;;;;;;;;;5006317;28;20045;-73
2022/04/05 12:49:52;;;;;;;3.72;2.10;;;;;;;;;;5005535;28;20068;-76
2022/04/05 12:52:21;;;;;;;2.47;1.90;;;;;;;;;;4993517;28;20029;-74
2022/04/05 12:55:17;;;;;;;2.40;2.03;;;;;;;;;;5005852;28;20364;-73
2022/04/05 12:57:58;;;;;;;2.85;1.90;;;;;;;;;;4992241;28;20042;-74
2022/04/05 13:00:28;;;;;;;2.45;1.80;;;;;;;;;;5017402;28;20075;-74
2022/04/05 13:02:56;;;;;;;2.00;1.75;;;;;;;;;;5003556;28;20026;-75
2022/04/05 13:08:12;;;;;;;3.80;2.50;;;;;;;;;;5002451;28;20124;-73
2022/04/05 13:10:46;;;;;;;3.30;2.25;;;;;;;;;;5022146;28;20449;-75
2022/04/05 13:13:13;;;;;;;2.10;1.90;;;;;;;;;;4995538;28;20034;-74
2022/04/05 13:15:39;;;;;;;4.72;2.75;;;;;;;;;;5007662;28;20529;-75
2022/04/05 13:18:06;;;;;;;3.17;2.15;;;;;;;;;;5021731;28;20068;-72
2022/04/05 13:20:31;;;;;;;2.47;2.05;;;;;;;;;;5009252;28;20068;-73
2022/04/05 13:23:02;;;;;;;6.20;2.55;;;;;;;;;;5025529;28;20354;-74
2022/04/05 13:25:37;;;;;;;2.60;2.10;;;;;;;;;;5010165;28;20037;-74
2022/04/05 13:28:05;;;;;;;2.33;2.13;;;;;;;;;;5021273;28;20030;-73
2022/04/05 13:30:41;;;;;;;2.38;2.17;;;;;;;;;;4991454;28;20056;-73
2022/04/05 13:33:07;;;;;;;2.28;1.98;;;;;;;;;;5008119;28;20033;-75
2022/04/05 13:35:33;;;;;;;2.63;2.28;;;;;;;;;;5014254;28;20060;-74
2022/04/05 13:37:59;;;;;;;4.17;2.30;;;;;;;;;;5007798;28;20580;-73
2022/04/05 13:40:32;;;;;;;3.67;2.60;;;;;;;;;;5008148;28;20109;-74
2022/04/05 13:42:58;;;;;;;2.93;2.63;;;;;;;;;;4988235;28;20030;-74
2022/04/05 13:45:24;;;;;;;4.30;2.67;;;;;;;;;;4989506;28;20095;-73
2022/04/05 13:47:49;;;;;;;2.63;2.43;;;;;;;;;;5006207;28;20034;-74
2022/04/05 13:50:16;;;;;;;2.37;2.17;;;;;;;;;;5000846;28;20141;-73
2022/04/05 13:52:43;;;;;;;3.27;2.50;;;;;;;;;;5007641;28;20235;-74
2022/04/05 13:55:09;;;;;;;6.03;3.00;;;;;;;;;;5004144;28;20565;-74
2022/04/05 13:57:35;;;;;;;2.60;2.37;;;;;;;;;;5007780;28;20498;-73
2022/04/05 14:00:03;;;;;;;5.37;3.90;;;;;;;;;;4995075;28;20149;-73
2022/04/05 14:02:32;;;;;;;3.83;3.03;;;;;;;;;;5005088;28;20045;-74
2022/04/05 14:04:58;;;;;;;2.80;2.37;;;;;;;;;;5005325;28;20091;-74
2022/04/05 14:07:24;;;;;;;3.60;2.67;;;;;;;;;;5022773;28;20486;-73
2022/04/05 14:09:50;;;;;;;2.80;2.30;;;;;;;;;;5006333;28;20322;-74
2022/04/05 14:12:16;;;;;;;8.60;2.73;;;;;;;;;;5021619;28;20030;-74
2022/04/05 14:14:42;;;;;;;3.63;2.70;;;;;;;;;;5023087;28;20037;-73
2022/04/05 14:17:08;;;;;;;4.63;2.93;;;;;;;;;;5022542;28;20470;-72
2022/04/05 14:19:33;;;;;;;4.27;3.17;;;;;;;;;;4991342;28;20116;-74
2022/04/05 14:21:59;;;;;;;3.17;2.87;;;;;;;;;;5005335;28;20037;-73
2022/04/05 14:24:25;;;;;;;3.77;2.40;;;;;;;;;;5005273;28;20460;-74
2022/04/05 14:26:51;;;;;;;4.40;3.00;;;;;;;;;;5008847;28;20473;-73
2022/04/05 14:29:17;;;;;;;5.77;3.00;;;;;;;;;;5023213;28;20029;-74
2022/04/05 14:31:43;;;;;;;5.30;3.40;;;;;;;;;;5007869;28;20115;-74
2022/04/05 14:34:12;;;;;;;4.97;3.53;;;;;;;;;;5024390;28;20090;-73
2022/04/05 14:36:38;;;;;;;5.07;3.23;;;;;;;;;;4969750;28;20037;-73
2022/04/05 14:39:07;;;;;;;6.87;4.07;;;;;;;;;;4996806;28;20045;-73
2022/04/05 14:41:34;;;;;;;7.60;3.60;;;;;;;;;;4994325;28;20041;-74
2022/04/05 14:44:00;;;;;;;5.50;3.90;;;;;;;;;;5007497;28;20048;-74
2022/04/05 14:46:29;;;;;;;6.37;4.60;;;;;;;;;;5021231;28;20038;-75
2022/04/05 14:48:59;;;;;;;5.63;3.87;;;;;;;;;;5027737;28;20034;-75
2022/04/05 14:51:26;;;;;;;6.57;4.27;;;;;;;;;;4995710;28;20033;-77